Terminal Aerodrome Forecast
Issued by NWS

Home | Current Version | Previous Version | Text Only | Print | Product List | Glossary On
Versions: 1 2 3 4 5 6 7 8 9 10 11 12 13 14 15 16 17 18 19 20 21 22 23 24 25 26
000
FTUS45 KCYS 291100
TAFAIA
TAF
KAIA 291129Z 2912/3012 11009KT P6SM SCT150
      TEMPO 2912/2916 3SM BR BKN025
     FM291900 12005KT P6SM VCSH SCT050 BKN080
     FM300600 VRB04KT P6SM BKN080=

USA.gov is the U.S. government's official web portal to all federal, state and local government web resources and services.